createdAt,value
2023-05-21T05:03:11.412Z,13.00
2023-05-21T05:08:16.347Z,12.90
2023-05-21T05:18:25.466Z,13.10
2023-05-21T05:33:39.492Z,13.30
2023-05-21T05:43:48.011Z,13.40
2023-05-21T05:48:53.485Z,13.50
2023-05-21T05:59:01.165Z,13.70
2023-05-21T06:04:07.418Z,13.90
2023-05-21T06:14:14.856Z,14.30
2023-05-21T06:19:20.374Z,14.50
2023-05-21T06:29:28.896Z,14.90
2023-05-21T06:34:34.241Z,15.00
2023-05-21T06:44:42.626Z,15.20
2023-05-21T06:49:48.234Z,15.30
2023-05-21T06:59:56.932Z,15.50
2023-05-21T07:05:02.001Z,15.60
2023-05-21T07:10:06.418Z,15.70
2023-05-21T07:15:10.846Z,15.70
2023-05-21T07:20:16.851Z,15.90
2023-05-21T07:25:22.619Z,16.00
2023-05-21T07:30:26.385Z,16.10
2023-05-21T07:35:31.727Z,16.20
2023-05-21T07:40:35.393Z,16.20
2023-05-21T07:45:39.610Z,16.40
2023-05-21T07:50:45.066Z,16.60
2023-05-21T07:55:49.218Z,16.80
2023-05-21T08:00:53.333Z,17.00
2023-05-21T08:05:58.617Z,17.10
2023-05-21T08:11:02.513Z,17.20
2023-05-21T08:16:07.181Z,17.40
2023-05-21T08:21:12.325Z,17.50
2023-05-21T08:26:17.164Z,17.80
2023-05-21T08:31:21.438Z,18.20
2023-05-21T08:36:28.837Z,18.50
2023-05-21T08:41:36.319Z,18.70
2023-05-21T08:46:42.784Z,19.00
2023-05-21T08:51:50.319Z,19.40
2023-05-21T08:56:55.609Z,17.70
2023-05-21T09:02:00.066Z,20.30
2023-05-21T09:07:07.931Z,21.10
2023-05-21T09:12:16.465Z,21.70
2023-05-21T09:17:20.937Z,22.20
2023-05-21T09:22:29.110Z,22.60
2023-05-21T09:27:33.613Z,22.80
2023-05-21T09:32:37.358Z,23.20
2023-05-21T09:37:44.097Z,23.50
2023-05-21T09:42:49.577Z,23.90
2023-05-21T09:47:54.865Z,24.20
2023-05-21T09:52:59.815Z,24.50
2023-05-21T09:58:04.686Z,24.70
2023-05-21T10:03:13.063Z,24.90
2023-05-21T10:08:23.239Z,25.20
2023-05-21T10:13:27.842Z,25.60
2023-05-21T10:18:33.367Z,26.10
2023-05-21T10:23:39.721Z,26.50
2023-05-21T10:28:44.334Z,26.90
2023-05-21T10:33:48.396Z,27.20
2023-05-21T10:38:53.729Z,27.60
2023-05-21T10:44:11.007Z,27.70
2023-05-21T10:49:29.213Z,27.90
2023-05-21T10:54:55.446Z,28.10
2023-05-21T10:59:59.604Z,28.30
2023-05-21T11:05:04.242Z,28.40
2023-05-21T11:10:37.024Z,28.30
2023-05-21T11:16:07.829Z,28.00
2023-05-21T11:21:13.046Z,27.70
2023-05-21T11:26:18.503Z,27.50
2023-05-21T11:31:26.887Z,27.10
2023-05-21T11:36:31.943Z,26.80
2023-05-21T11:47:06.383Z,26.80
2023-05-21T11:52:11.793Z,27.00
2023-05-21T11:57:16.647Z,26.90
2023-05-21T12:02:23.429Z,26.80
2023-05-21T12:07:29.744Z,26.80
2023-05-21T12:12:45.976Z,26.50
2023-05-21T12:17:56.320Z,26.10
2023-05-21T12:23:00.709Z,25.90
2023-05-21T12:28:05.427Z,25.80
2023-05-21T12:33:12.129Z,25.70
2023-05-21T12:38:15.752Z,25.80
2023-05-21T12:43:20.167Z,25.90
2023-05-21T12:48:25.203Z,26.20
2023-05-21T12:53:37.944Z,26.30
2023-05-21T12:58:42.181Z,26.30
2023-05-21T13:03:46.929Z,26.30
2023-05-21T13:08:50.510Z,26.30
2023-05-21T13:13:54.034Z,26.30
2023-05-21T13:18:59.012Z,26.20
2023-05-21T13:24:02.634Z,26.10
2023-05-21T13:29:06.158Z,25.80
2023-05-21T13:34:11.969Z,25.70
2023-05-21T13:39:15.689Z,25.50
2023-05-21T13:44:19.299Z,25.10
2023-05-21T13:49:24.251Z,24.80
2023-05-21T13:54:27.927Z,24.60
2023-05-21T13:59:33.668Z,24.40
2023-05-21T14:04:39.715Z,24.10
2023-05-21T14:09:43.386Z,24.00
2023-05-21T14:14:49.817Z,23.90
2023-05-21T14:19:54.934Z,23.80
2023-05-21T14:24:58.518Z,24.00
2023-05-21T14:30:02.102Z,24.30
2023-05-21T14:35:08.329Z,24.60
2023-05-21T14:40:12.768Z,24.80
2023-05-21T14:45:19.189Z,25.00
2023-05-21T14:50:24.520Z,25.00
2023-05-21T14:55:28.486Z,24.90
2023-05-21T15:00:32.588Z,24.70
2023-05-21T15:05:37.790Z,24.60
2023-05-21T15:10:41.598Z,24.50
2023-05-21T15:15:45.184Z,24.40
2023-05-21T15:20:50.421Z,24.30
2023-05-21T15:25:53.973Z,24.20
2023-05-21T15:30:57.591Z,24.20
2023-05-21T15:36:02.583Z,24.10
2023-05-21T15:41:07.133Z,24.00
2023-05-21T15:46:11.221Z,24.00
2023-05-21T15:51:16.405Z,23.90
2023-05-21T15:56:19.970Z,23.90
2023-05-21T16:01:23.639Z,23.80
2023-05-21T16:06:28.694Z,23.80
2023-05-21T16:11:32.441Z,23.60
2023-05-21T16:16:36.232Z,23.50
2023-05-21T16:21:41.226Z,23.40
2023-05-21T16:26:46.009Z,23.30
2023-05-21T16:31:49.590Z,23.20
2023-05-21T16:36:54.659Z,23.00
2023-05-21T16:41:59.806Z,23.00
2023-05-21T16:47:04.428Z,22.80
2023-05-21T16:52:09.390Z,22.70
2023-05-21T16:57:12.914Z,22.50
2023-05-21T17:02:16.509Z,22.30
2023-05-21T17:07:21.471Z,22.20
2023-05-21T17:12:25.030Z,22.10
2023-05-21T17:17:28.718Z,21.90
2023-05-21T17:22:33.683Z,21.70
2023-05-21T17:27:37.241Z,21.60
2023-05-21T17:32:40.825Z,21.60
2023-05-21T17:37:45.958Z,21.60
2023-05-21T17:42:49.570Z,21.60
2023-05-21T17:47:53.706Z,21.40
2023-05-21T17:52:58.631Z,21.30
2023-05-21T17:58:02.199Z,21.30
2023-05-21T18:03:05.951Z,21.20
2023-05-21T18:08:11.005Z,21.10
2023-05-21T18:13:14.761Z,20.90
2023-05-21T18:18:21.286Z,20.80
2023-05-21T18:23:28.553Z,20.60
2023-05-21T18:28:33.409Z,20.50
2023-05-21T18:33:37.001Z,20.40
2023-05-21T18:38:41.996Z,20.40
2023-05-21T18:43:46.043Z,20.30
2023-05-21T18:48:49.878Z,20.30
2023-05-21T18:53:54.982Z,20.10
2023-05-21T18:58:58.581Z,20.00
2023-05-21T19:04:02.440Z,19.80
2023-05-21T19:09:07.573Z,19.70
2023-05-21T19:14:11.276Z,19.60
2023-05-21T19:19:14.904Z,19.50
2023-05-21T19:24:19.923Z,19.40
2023-05-21T19:29:23.474Z,19.20
2023-05-21T19:34:27.286Z,19.20
2023-05-21T19:39:38.775Z,19.10
2023-05-21T19:44:42.421Z,19.00
2023-05-21T19:49:46.050Z,18.80
2023-05-21T19:54:51.637Z,18.70
2023-05-21T19:59:55.203Z,18.50
2023-05-21T20:04:59.225Z,18.50
2023-05-21T20:10:04.324Z,18.40
2023-05-21T20:15:08.997Z,18.30
2023-05-21T20:20:13.706Z,18.20
2023-05-21T20:25:18.661Z,18.20
2023-05-21T20:30:23.303Z,18.20
2023-05-21T20:35:27.673Z,18.10
2023-05-21T20:40:32.653Z,18.00
2023-05-21T20:45:36.285Z,17.90
2023-05-21T20:50:41.725Z,17.80
2023-05-21T20:55:46.959Z,17.70
2023-05-21T21:00:50.628Z,17.70
2023-05-21T21:11:01.330Z,17.50
2023-05-21T21:16:05.712Z,17.40
2023-05-21T21:21:09.440Z,17.30
2023-05-21T21:26:14.469Z,17.20
2023-05-21T21:31:18.588Z,17.10
2023-05-21T21:36:22.151Z,17.00
2023-05-21T21:41:27.172Z,16.90
2023-05-21T21:46:30.744Z,16.80
2023-05-21T21:51:35.621Z,16.70
2023-05-21T21:56:40.649Z,16.70
2023-05-21T22:01:44.535Z,16.60
2023-05-21T22:06:48.361Z,16.50
2023-05-21T22:11:53.597Z,16.40
2023-05-21T22:16:57.251Z,16.30
2023-05-21T22:27:07.955Z,16.20
